Brisas de Ceiba, Puerto Rico
Current Conditions -  °F | °C
As of 1:53 AM on Wednesday 22 Oct 2014 (Local Time) from TJNR Reporting Station
Clear Clear  
Wind Chill: 80°   Ceiling: Unl
Heat Index: 84°   Visibility: 10mi
Dew Point: 72°   Wind: 5mph
Humidity: 76%   Direction: 90°E
Pressure: 29.97"   Gusts: NA
Location:  18.2667°N, 65.6476°W
Report Text: TJNR 220553Z AUTO 09004KT 10SM CLR 27/22 A2997 RMK AO2 SLP150 60000 T02670222 10278 20261 58008
Loading
Personal Weather Stations






























Interactive Weather Map
Tropical Storm Tracking
New forecast layout! Learn more

10-Day Weather Forecast

Advertisements
Track Severe Weather on mobile